sensor_id;sensor_type;location;lat;lon;timestamp;pressure;altitude;pressure_sealevel;temperature;humidity
34925;BME280;21130;51.728;8.748;2023-03-04T00:02:21;101187.69;;;1.55;100.00
34925;BME280;21130;51.728;8.748;2023-03-04T00:04:47;101186.31;;;1.50;100.00
34925;BME280;21130;51.728;8.748;2023-03-04T00:07:13;101189.56;;;1.54;100.00
34925;BME280;21130;51.728;8.748;2023-03-04T00:09:41;101190.25;;;1.56;100.00
34925;BME280;21130;51.728;8.748;2023-03-04T00:12:08;101187.69;;;1.55;100.00
34925;BME280;21130;51.728;8.748;2023-03-04T00:14:34;101193.16;;;1.63;100.00
34925;BME280;21130;51.728;8.748;2023-03-04T00:17:00;101191.44;;;1.62;100.00
34925;BME280;21130;51.728;8.748;2023-03-04T00:19:29;101187.38;;;1.66;100.00
34925;BME280;21130;51.728;8.748;2023-03-04T00:21:56;101190.09;;;1.66;100.00
34925;BME280;21130;51.728;8.748;2023-03-04T00:24:22;101184.63;;;1.66;100.00
34925;BME280;21130;51.728;8.748;2023-03-04T00:26:51;101196.44;;;1.66;100.00
34925;BME280;21130;51.728;8.748;2023-03-04T00:29:17;101185.81;;;1.71;100.00
34925;BME280;21130;51.728;8.748;2023-03-04T00:31:44;101184.78;;;1.72;100.00
34925;BME280;21130;51.728;8.748;2023-03-04T00:34:11;101184.97;;;1.71;100.00
34925;BME280;21130;51.728;8.748;2023-03-04T00:36:39;101185.81;;;1.71;100.00
34925;BME280;21130;51.728;8.748;2023-03-04T00:39:05;101187.72;;;1.71;100.00
34925;BME280;21130;51.728;8.748;2023-03-04T00:41:31;101181.88;;;1.74;100.00
34925;BME280;21130;51.728;8.748;2023-03-04T00:43:58;101169.59;;;1.78;100.00
34925;BME280;21130;51.728;8.748;2023-03-04T00:46:24;101177.25;;;1.75;100.00
34925;BME280;21130;51.728;8.748;2023-03-04T00:48:51;101173.31;;;1.77;100.00
34925;BME280;21130;51.728;8.748;2023-03-04T00:51:17;101167.50;;;1.80;100.00
34925;BME280;21130;51.728;8.748;2023-03-04T00:53:45;101180.88;;;1.83;100.00
34925;BME280;21130;51.728;8.748;2023-03-04T00:56:11;101176.25;;;1.84;100.00
34925;BME280;21130;51.728;8.748;2023-03-04T00:58:38;101173.31;;;1.77;100.00
34925;BME280;21130;51.728;8.748;2023-03-04T01:01:04;101172.13;;;1.80;100.00
34925;BME280;21130;51.728;8.748;2023-03-04T01:03:31;101170.44;;;1.79;100.00
34925;BME280;21130;51.728;8.748;2023-03-04T01:05:58;101167.16;;;1.75;100.00
34925;BME280;21130;51.728;8.748;2023-03-04T01:08:24;101167.53;;;1.88;100.00
34925;BME280;21130;51.728;8.748;2023-03-04T01:10:52;101164.94;;;1.87;100.00
34925;BME280;21130;51.728;8.748;2023-03-04T01:13:18;101162.22;;;1.87;100.00
34925;BME280;21130;51.728;8.748;2023-03-04T01:15:45;101164.09;;;1.86;100.00
34925;BME280;21130;51.728;8.748;2023-03-04T01:18:11;101157.44;;;1.81;100.00
34925;BME280;21130;51.728;8.748;2023-03-04T01:20:37;101158.97;;;1.83;100.00
34925;BME280;21130;51.728;8.748;2023-03-04T01:23:04;101157.94;;;1.84;100.00
34925;BME280;21130;51.728;8.748;2023-03-04T01:25:31;101150.06;;;1.81;100.00
34925;BME280;21130;51.728;8.748;2023-03-04T01:27:59;101155.53;;;1.89;100.00
34925;BME280;21130;51.728;8.748;2023-03-04T01:30:25;101159.63;;;1.85;100.00
34925;BME280;21130;51.728;8.748;2023-03-04T01:32:53;101157.22;;;1.90;100.00
34925;BME280;21130;51.728;8.748;2023-03-04T01:35:19;101150.94;;;1.82;100.00
34925;BME280;21130;51.728;8.748;2023-03-04T01:37:46;101152.47;;;1.84;100.00
34925;BME280;21130;51.728;8.748;2023-03-04T01:40:13;101149.72;;;1.84;100.00
34925;BME280;21130;51.728;8.748;2023-03-04T01:42:39;101143.75;;;1.89;100.00
34925;BME280;21130;51.728;8.748;2023-03-04T01:45:11;101144.94;;;1.94;100.00
34925;BME280;21130;51.728;8.748;2023-03-04T01:47:39;101146.63;;;1.95;100.00
34925;BME280;21130;51.728;8.748;2023-03-04T01:50:17;101141.16;;;1.95;100.00
34925;BME280;21130;51.728;8.748;2023-03-04T01:52:44;101137.56;;;1.95;100.00
34925;BME280;21130;51.728;8.748;2023-03-04T01:55:15;101124.41;;;1.99;100.00
34925;BME280;21130;51.728;8.748;2023-03-04T01:57:41;101130.38;;;1.94;100.00
34925;BME280;21130;51.728;8.748;2023-03-04T02:00:22;101125.06;;;1.92;100.00
34925;BME280;21130;51.728;8.748;2023-03-04T02:02:51;101130.19;;;1.95;100.00
34925;BME280;21130;51.728;8.748;2023-03-04T02:05:18;101119.78;;;1.99;100.00
34925;BME280;21130;51.728;8.748;2023-03-04T02:07:45;101117.03;;;1.99;100.00
34925;BME280;21130;51.728;8.748;2023-03-04T02:10:11;101115.31;;;1.98;100.00
34925;BME280;21130;51.728;8.748;2023-03-04T02:12:38;101115.66;;;2.03;100.00
34925;BME280;21130;51.728;8.748;2023-03-04T02:15:06;101112.75;;;2.05;100.00
34925;BME280;21130;51.728;8.748;2023-03-04T02:17:34;101116.66;;;2.10;100.00
34925;BME280;21130;51.728;8.748;2023-03-04T02:20:06;101114.13;;;2.09;100.00
34925;BME280;21130;51.728;8.748;2023-03-04T02:22:38;101112.06;;;2.11;100.00
34925;BME280;21130;51.728;8.748;2023-03-04T02:25:10;101109.84;;;2.06;100.00
34925;BME280;21130;51.728;8.748;2023-03-04T02:27:39;101111.38;;;2.09;100.00
34925;BME280;21130;51.728;8.748;2023-03-04T02:30:08;101113.59;;;2.05;100.00
34925;BME280;21130;51.728;8.748;2023-03-04T02:32:35;101106.75;;;2.09;100.00
34925;BME280;21130;51.728;8.748;2023-03-04T02:35:02;101105.53;;;2.12;100.00
34925;BME280;21130;51.728;8.748;2023-03-04T02:37:31;101102.31;;;2.08;100.00
34925;BME280;21130;51.728;8.748;2023-03-04T02:39:58;101101.59;;;2.14;100.00
34925;BME280;21130;51.728;8.748;2023-03-04T02:42:24;101100.75;;;2.14;100.00
34925;BME280;21130;51.728;8.748;2023-03-04T02:44:59;101096.97;;;2.15;100.00
34925;BME280;21130;51.728;8.748;2023-03-04T02:47:26;101093.22;;;2.16;100.00
34925;BME280;21130;51.728;8.748;2023-03-04T02:49:53;101091.81;;;2.20;100.00
34925;BME280;21130;51.728;8.748;2023-03-04T02:52:22;101094.56;;;2.20;100.00
34925;BME280;21130;51.728;8.748;2023-03-04T02:54:50;101091.81;;;2.20;100.00
34925;BME280;21130;51.728;8.748;2023-03-04T02:57:16;101093.88;;;2.26;100.00
34925;BME280;21130;51.728;8.748;2023-03-04T02:59:42;101090.44;;;2.24;100.00
34925;BME280;21130;51.728;8.748;2023-03-04T03:02:10;101083.59;;;2.20;100.00
34925;BME280;21130;51.728;8.748;2023-03-04T03:04:38;101085.28;;;2.29;100.00
34925;BME280;21130;51.728;8.748;2023-03-04T03:07:05;101083.03;;;2.33;100.00
34925;BME280;21130;51.728;8.748;2023-03-04T03:09:32;101082.88;;;2.34;100.00
34925;BME280;21130;51.728;8.748;2023-03-04T03:11:58;101072.97;;;2.25;100.00
34925;BME280;21130;51.728;8.748;2023-03-04T03:14:25;101082.56;;;2.29;100.00
34925;BME280;21130;51.728;8.748;2023-03-04T03:16:51;101090.81;;;2.21;100.00
34925;BME280;21130;51.728;8.748;2023-03-04T03:19:19;101074.00;;;2.24;100.00
34925;BME280;21130;51.728;8.748;2023-03-04T03:21:45;101070.59;;;2.22;100.00
34925;BME280;21130;51.728;8.748;2023-03-04T03:24:12;101069.38;;;2.25;100.00
34925;BME280;21130;51.728;8.748;2023-03-04T03:26:38;101067.50;;;2.25;100.00
34925;BME280;21130;51.728;8.748;2023-03-04T03:29:05;101069.56;;;2.23;100.00
34925;BME280;21130;51.728;8.748;2023-03-04T03:31:31;101070.06;;;2.27;100.00
34925;BME280;21130;51.728;8.748;2023-03-04T03:33:58;101070.22;;;2.25;100.00
34925;BME280;21130;51.728;8.748;2023-03-04T03:36:26;101062.91;;;2.26;100.00
34925;BME280;21130;51.728;8.748;2023-03-04T03:38:52;101065.28;;;2.29;100.00
34925;BME280;21130;51.728;8.748;2023-03-04T03:41:19;101074.00;;;2.24;100.00
34925;BME280;21130;51.728;8.748;2023-03-04T03:43:45;101064.75;;;2.25;100.00
34925;BME280;21130;51.728;8.748;2023-03-04T03:46:11;101067.16;;;2.20;100.00
34925;BME280;21130;51.728;8.748;2023-03-04T03:48:39;101070.44;;;2.15;100.00
34925;BME280;21130;51.728;8.748;2023-03-04T03:51:05;101069.44;;;2.16;100.00
34925;BME280;21130;51.728;8.748;2023-03-04T03:53:33;101067.53;;;2.17;100.00
34925;BME280;21130;51.728;8.748;2023-03-04T03:55:59;101069.59;;;2.15;100.00
34925;BME280;21130;51.728;8.748;2023-03-04T03:58:26;101060.00;;;2.19;100.00
34925;BME280;21130;51.728;8.748;2023-03-04T04:00:52;101064.47;;;2.12;100.00
34925;BME280;21130;51.728;8.748;2023-03-04T04:03:19;101063.09;;;2.16;100.00
34925;BME280;21130;51.728;8.748;2023-03-04T04:05:46;101058.28;;;2.18;100.00
34925;BME280;21130;51.728;8.748;2023-03-04T04:08:12;101056.75;;;2.24;100.00
34925;BME280;21130;51.728;8.748;2023-03-04T04:10:41;101059.63;;;2.22;100.00
34925;BME280;21130;51.728;8.748;2023-03-04T04:13:07;101054.16;;;2.22;100.00
34925;BME280;21130;51.728;8.748;2023-03-04T04:15:34;101046.47;;;2.17;100.00
34925;BME280;21130;51.728;8.748;2023-03-04T04:18:01;101045.63;;;2.17;100.00
34925;BME280;21130;51.728;8.748;2023-03-04T04:20:27;101048.84;;;2.21;100.00
34925;BME280;21130;51.728;8.748;2023-03-04T04:22:53;101054.00;;;2.24;100.00
34925;BME280;21130;51.728;8.748;2023-03-04T04:25:20;101048.72;;;2.14;100.00
34925;BME280;21130;51.728;8.748;2023-03-04T04:27:48;101054.88;;;2.16;100.00
34925;BME280;21130;51.728;8.748;2023-03-04T04:30:15;101049.72;;;2.21;100.00
34925;BME280;21130;51.728;8.748;2023-03-04T04:32:41;101052.47;;;2.21;100.00
34925;BME280;21130;51.728;8.748;2023-03-04T04:35:08;101049.19;;;2.26;100.00
34925;BME280;21130;51.728;8.748;2023-03-04T04:37:35;101053.13;;;2.23;100.00
34925;BME280;21130;51.728;8.748;2023-03-04T04:40:02;101044.25;;;2.21;100.00
34925;BME280;21130;51.728;8.748;2023-03-04T04:42:29;101047.31;;;2.26;100.00
34925;BME280;21130;51.728;8.748;2023-03-04T04:44:56;101042.84;;;2.25;100.00
34925;BME280;21130;51.728;8.748;2023-03-04T04:47:23;101048.66;;;2.30;100.00
34925;BME280;21130;51.728;8.748;2023-03-04T04:49:49;101039.78;;;2.28;100.00
34925;BME280;21130;51.728;8.748;2023-03-04T04:52:16;101040.78;;;2.27;100.00
34925;BME280;21130;51.728;8.748;2023-03-04T04:54:42;101048.00;;;2.28;100.00
34925;BME280;21130;51.728;8.748;2023-03-04T04:57:09;101043.16;;;2.30;100.00
34925;BME280;21130;51.728;8.748;2023-03-04T04:59:35;101043.47;;;2.35;100.00
34925;BME280;21130;51.728;8.748;2023-03-04T05:02:03;101040.41;;;2.38;100.00
34925;BME280;21130;51.728;8.748;2023-03-04T05:04:30;101046.78;;;2.31;100.00
34925;BME280;21130;51.728;8.748;2023-03-04T05:06:56;101042.16;;;2.31;100.00
34925;BME280;21130;51.728;8.748;2023-03-04T05:09:22;101046.78;;;2.31;100.00
34925;BME280;21130;51.728;8.748;2023-03-04T05:11:49;101041.97;;;2.33;100.00
34925;BME280;21130;51.728;8.748;2023-03-04T05:14:16;101039.53;;;2.38;100.00
34925;BME280;21130;51.728;8.748;2023-03-04T05:16:45;101050.69;;;2.36;100.00
34925;BME280;21130;51.728;8.748;2023-03-04T05:19:14;101045.91;;;2.38;100.00
34925;BME280;21130;51.728;8.748;2023-03-04T05:21:46;101042.09;;;2.40;100.00
34925;BME280;21130;51.728;8.748;2023-03-04T05:24:12;101041.22;;;2.47;100.00
34925;BME280;21130;51.728;8.748;2023-03-04T05:26:39;101044.47;;;2.43;100.00
34925;BME280;21130;51.728;8.748;2023-03-04T05:29:06;101043.44;;;2.52;100.00
34925;BME280;21130;51.728;8.748;2023-03-04T05:31:35;101033.38;;;2.44;100.00
34925;BME280;21130;51.728;8.748;2023-03-04T05:34:01;101036.94;;;2.45;100.00
34925;BME280;21130;51.728;8.748;2023-03-04T05:36:30;101030.09;;;2.49;100.00
34925;BME280;21130;51.728;8.748;2023-03-04T05:38:56;101035.38;;;2.50;100.00
34925;BME280;21130;51.728;8.748;2023-03-04T05:41:23;101031.41;;;2.53;100.00
34925;BME280;21130;51.728;8.748;2023-03-04T05:43:50;101030.94;;;2.49;100.00
34925;BME280;21130;51.728;8.748;2023-03-04T05:46:17;101034.03;;;2.46;100.00
34925;BME280;21130;51.728;8.748;2023-03-04T05:48:48;101032.47;;;2.52;100.00
34925;BME280;21130;51.728;8.748;2023-03-04T05:51:14;101029.72;;;2.52;100.00
34925;BME280;21130;51.728;8.748;2023-03-04T05:53:42;101039.63;;;2.53;100.00
34925;BME280;21130;51.728;8.748;2023-03-04T05:56:10;101039.31;;;2.56;100.00
34925;BME280;21130;51.728;8.748;2023-03-04T05:58:38;101035.53;;;2.57;100.00
34925;BME280;21130;51.728;8.748;2023-03-04T06:01:05;101037.22;;;2.58;100.00
34925;BME280;21130;51.728;8.748;2023-03-04T06:03:31;101036.38;;;2.57;100.00
34925;BME280;21130;51.728;8.748;2023-03-04T06:05:58;101049.91;;;2.59;100.00
34925;BME280;21130;51.728;8.748;2023-03-04T06:08:25;101042.69;;;2.58;100.00
34925;BME280;21130;51.728;8.748;2023-03-04T06:10:54;101041.00;;;2.57;100.00
34925;BME280;21130;51.728;8.748;2023-03-04T06:13:21;101046.00;;;2.53;100.00
34925;BME280;21130;51.728;8.748;2023-03-04T06:15:52;101043.06;;;2.55;100.00
34925;BME280;21130;51.728;8.748;2023-03-04T06:18:19;101049.59;;;2.54;100.00
34925;BME280;21130;51.728;8.748;2023-03-04T06:20:45;101056.75;;;2.55;100.00
34925;BME280;21130;51.728;8.748;2023-03-04T06:23:12;101060.53;;;2.54;100.00
34925;BME280;21130;51.728;8.748;2023-03-04T06:25:38;101059.00;;;2.51;100.00
34925;BME280;21130;51.728;8.748;2023-03-04T06:28:06;101058.66;;;2.54;100.00
34925;BME280;21130;51.728;8.748;2023-03-04T06:30:32;101066.19;;;2.52;100.00
34925;BME280;21130;51.728;8.748;2023-03-04T06:33:03;101067.72;;;2.55;100.00
34925;BME280;21130;51.728;8.748;2023-03-04T06:35:29;101076.47;;;2.58;100.00
34925;BME280;21130;51.728;8.748;2023-03-04T06:37:56;101064.81;;;2.56;100.00
34925;BME280;21130;51.728;8.748;2023-03-04T06:40:22;101072.19;;;2.56;100.00
34925;BME280;21130;51.728;8.748;2023-03-04T06:42:48;101075.09;;;2.54;100.00
34925;BME280;21130;51.728;8.748;2023-03-04T06:45:16;101076.31;;;2.52;100.00
34925;BME280;21130;51.728;8.748;2023-03-04T06:47:43;101066.38;;;2.51;100.00
34925;BME280;21130;51.728;8.748;2023-03-04T06:50:10;101074.25;;;2.54;100.00
34925;BME280;21130;51.728;8.748;2023-03-04T06:52:37;101082.09;;;2.57;100.00
34925;BME280;21130;51.728;8.748;2023-03-04T06:55:05;101078.50;;;2.56;100.00
34925;BME280;21130;51.728;8.748;2023-03-04T06:57:32;101078.63;;;2.63;100.00
34925;BME280;21130;51.728;8.748;2023-03-04T06:59:58;101081.06;;;2.58;100.00
34925;BME280;21130;51.728;8.748;2023-03-04T07:02:26;101080.34;;;2.64;100.00
34925;BME280;21130;51.728;8.748;2023-03-04T07:04:52;101071.09;;;2.65;100.00
34925;BME280;21130;51.728;8.748;2023-03-04T07:07:22;101078.28;;;2.66;100.00
34925;BME280;21130;51.728;8.748;2023-03-04T07:09:50;101070.88;;;2.75;100.00
34925;BME280;21130;51.728;8.748;2023-03-04T07:12:16;101071.38;;;2.78;100.00
34925;BME280;21130;51.728;8.748;2023-03-04T07:14:43;101074.22;;;2.85;100.00
34925;BME280;21130;51.728;8.748;2023-03-04T07:17:09;101068.34;;;2.96;100.00
34925;BME280;21130;51.728;8.748;2023-03-04T07:19:37;101063.66;;;3.05;100.00
34925;BME280;21130;51.728;8.748;2023-03-04T07:22:03;101063.66;;;3.05;100.00
34925;BME280;21130;51.728;8.748;2023-03-04T07:24:30;101069.81;;;3.07;100.00
34925;BME280;21130;51.728;8.748;2023-03-04T07:26:56;101073.94;;;3.03;100.00
34925;BME280;21130;51.728;8.748;2023-03-04T07:29:22;101069.81;;;3.07;100.00
34925;BME280;21130;51.728;8.748;2023-03-04T07:31:49;101075.91;;;3.17;100.00
34925;BME280;21130;51.728;8.748;2023-03-04T07:34:16;101075.59;;;3.12;100.00
34925;BME280;21130;51.728;8.748;2023-03-04T07:36:44;101079.81;;;3.23;100.00
34925;BME280;21130;51.728;8.748;2023-03-04T07:39:11;101074.16;;;3.24;100.00
34925;BME280;21130;51.728;8.748;2023-03-04T07:41:39;101074.81;;;3.27;100.00
34925;BME280;21130;51.728;8.748;2023-03-04T07:44:06;101065.06;;;3.24;100.00
34925;BME280;21130;51.728;8.748;2023-03-04T07:46:34;101066.22;;;3.30;100.00
34925;BME280;21130;51.728;8.748;2023-03-04T07:49:00;101066.00;;;3.16;100.00
34925;BME280;21130;51.728;8.748;2023-03-04T07:51:27;101069.38;;;3.18;100.00
34925;BME280;21130;51.728;8.748;2023-03-04T07:53:56;101061.28;;;3.25;100.00
34925;BME280;21130;51.728;8.748;2023-03-04T07:56:24;101069.66;;;3.32;100.00
34925;BME280;21130;51.728;8.748;2023-03-04T07:58:51;101063.78;;;3.35;100.00
34925;BME280;21130;51.728;8.748;2023-03-04T08:01:20;101057.16;;;3.29;100.00
34925;BME280;21130;51.728;8.748;2023-03-04T08:03:47;101073.06;;;3.34;100.00
34925;BME280;21130;51.728;8.748;2023-03-04T08:06:15;101067.91;;;3.31;100.00
34925;BME280;21130;51.728;8.748;2023-03-04T08:08:42;101073.84;;;3.42;100.00
34925;BME280;21130;51.728;8.748;2023-03-04T08:11:11;101064.56;;;3.43;100.00
34925;BME280;21130;51.728;8.748;2023-03-04T08:13:38;101055.78;;;3.48;100.00
34925;BME280;21130;51.728;8.748;2023-03-04T08:16:06;101061.22;;;3.56;100.00
34925;BME280;21130;51.728;8.748;2023-03-04T08:18:33;101059.09;;;3.58;100.00
34925;BME280;21130;51.728;8.748;2023-03-04T08:20:59;101064.31;;;3.53;100.00
34925;BME280;21130;51.728;8.748;2023-03-04T08:23:26;101064.97;;;3.55;100.00
34925;BME280;21130;51.728;8.748;2023-03-04T08:25:52;101069.31;;;3.50;100.00
34925;BME280;21130;51.728;8.748;2023-03-04T08:28:20;101058.16;;;3.51;100.00
34925;BME280;21130;51.728;8.748;2023-03-04T08:30:57;101053.22;;;3.46;100.00
34925;BME280;21130;51.728;8.748;2023-03-04T08:33:24;101064.09;;;3.40;100.00
34925;BME280;21130;51.728;8.748;2023-03-04T08:35:51;101062.69;;;3.44;100.00
34925;BME280;21130;51.728;8.748;2023-03-04T08:38:18;101065.78;;;3.41;100.00
34925;BME280;21130;51.728;8.748;2023-03-04T08:40:45;101067.00;;;3.38;100.00
34925;BME280;21130;51.728;8.748;2023-03-04T08:43:16;101060.28;;;3.41;100.00
34925;BME280;21130;51.728;8.748;2023-03-04T08:45:44;101057.63;;;3.33;100.00
34925;BME280;21130;51.728;8.748;2023-03-04T08:48:10;101065.84;;;3.33;100.00
34925;BME280;21130;51.728;8.748;2023-03-04T08:50:37;101060.28;;;3.41;100.00
34925;BME280;21130;51.728;8.748;2023-03-04T08:53:03;101062.44;;;3.54;100.00
34925;BME280;21130;51.728;8.748;2023-03-04T08:55:30;101068.94;;;3.53;100.00
34925;BME280;21130;51.728;8.748;2023-03-04T08:57:56;101062.06;;;3.57;100.00
34925;BME280;21130;51.728;8.748;2023-03-04T09:00:22;101063.72;;;3.43;100.00
34925;BME280;21130;51.728;8.748;2023-03-04T09:02:50;101062.38;;;3.39;100.00
34925;BME280;21130;51.728;8.748;2023-03-04T09:05:17;101059.66;;;3.39;100.00
34925;BME280;21130;51.728;8.748;2023-03-04T09:07:43;101060.19;;;3.34;100.00
34925;BME280;21130;51.728;8.748;2023-03-04T09:10:10;101059.34;;;3.34;100.00
34925;BME280;21130;51.728;8.748;2023-03-04T09:12:37;101061.16;;;3.18;100.00
34925;BME280;21130;51.728;8.748;2023-03-04T09:15:04;101052.28;;;3.16;100.00
34925;BME280;21130;51.728;8.748;2023-03-04T09:17:31;101062.63;;;3.06;100.00
34925;BME280;21130;51.728;8.748;2023-03-04T09:19:59;101060.53;;;3.08;100.00
34925;BME280;21130;51.728;8.748;2023-03-04T09:22:25;101066.03;;;3.08;100.00
34925;BME280;21130;51.728;8.748;2023-03-04T09:24:51;101065.72;;;3.03;100.00
34925;BME280;21130;51.728;8.748;2023-03-04T09:27:18;101068.44;;;3.11;100.00
34925;BME280;21130;51.728;8.748;2023-03-04T09:29:44;101070.13;;;3.12;100.00
34925;BME280;21130;51.728;8.748;2023-03-04T09:32:11;101063.28;;;3.08;100.00
34925;BME280;21130;51.728;8.748;2023-03-04T09:34:39;101062.81;;;3.05;100.00
34925;BME280;21130;51.728;8.748;2023-03-04T09:37:07;101064.63;;;3.12;100.00
34925;BME280;21130;51.728;8.748;2023-03-04T09:39:33;101063.03;;;3.18;100.00
34925;BME280;21130;51.728;8.748;2023-03-04T09:42:00;101065.63;;;3.19;100.00
34925;BME280;21130;51.728;8.748;2023-03-04T09:44:30;101062.13;;;3.25;100.00
34925;BME280;21130;51.728;8.748;2023-03-04T09:47:00;101064.63;;;3.12;100.00
34925;BME280;21130;51.728;8.748;2023-03-04T09:49:29;101054.81;;;3.18;100.00
34925;BME280;21130;51.728;8.748;2023-03-04T09:52:01;101051.69;;;3.21;100.00
34925;BME280;21130;51.728;8.748;2023-03-04T09:54:54;101059.94;;;3.21;100.00
34925;BME280;21130;51.728;8.748;2023-03-04T09:57:29;101050.19;;;3.18;100.00
34925;BME280;21130;51.728;8.748;2023-03-04T10:00:08;101057.53;;;3.26;100.00
34925;BME280;21130;51.728;8.748;2023-03-04T10:02:43;101048.72;;;3.31;100.00
34925;BME280;21130;51.728;8.748;2023-03-04T10:05:14;101051.03;;;3.42;100.00
34925;BME280;21130;51.728;8.748;2023-03-04T10:07:45;101045.72;;;3.40;100.00
34925;BME280;21130;51.728;8.748;2023-03-04T10:10:18;101048.75;;;3.45;100.00
34925;BME280;21130;51.728;8.748;2023-03-04T10:12:48;101046.03;;;3.45;100.00
34925;BME280;21130;51.728;8.748;2023-03-04T10:15:22;101051.63;;;3.52;100.00
34925;BME280;21130;51.728;8.748;2023-03-04T10:17:51;101052.69;;;3.51;100.00
34925;BME280;21130;51.728;8.748;2023-03-04T10:20:22;101058.47;;;3.56;100.00
34925;BME280;21130;51.728;8.748;2023-03-04T10:22:50;101053.31;;;3.53;100.00
34925;BME280;21130;51.728;8.748;2023-03-04T10:25:20;101053.31;;;3.53;100.00
34925;BME280;21130;51.728;8.748;2023-03-04T10:27:49;101044.25;;;3.53;100.00
34925;BME280;21130;51.728;8.748;2023-03-04T10:30:22;101048.81;;;3.60;100.00
34925;BME280;21130;51.728;8.748;2023-03-04T10:32:51;101049.66;;;3.61;100.00
34925;BME280;21130;51.728;8.748;2023-03-04T10:35:24;101048.63;;;3.62;100.00
34925;BME280;21130;51.728;8.748;2023-03-04T10:37:52;101058.47;;;3.56;100.00
34925;BME280;21130;51.728;8.748;2023-03-04T10:40:22;101050.56;;;3.53;100.00
34925;BME280;21130;51.728;8.748;2023-03-04T10:42:50;101049.66;;;3.61;100.00
34925;BME280;21130;51.728;8.748;2023-03-04T10:45:22;101041.78;;;3.58;100.00
34925;BME280;21130;51.728;8.748;2023-03-04T10:47:53;101048.13;;;3.58;100.00
34925;BME280;21130;51.728;8.748;2023-03-04T10:50:25;101044.16;;;3.61;100.00
34925;BME280;21130;51.728;8.748;2023-03-04T10:52:53;101046.25;;;3.59;100.00
34925;BME280;21130;51.728;8.748;2023-03-04T10:55:23;101045.97;;;3.54;100.00
34925;BME280;21130;51.728;8.748;2023-03-04T10:57:54;101039.06;;;3.58;100.00
34925;BME280;21130;51.728;8.748;2023-03-04T11:00:27;101032.59;;;3.51;100.00
34925;BME280;21130;51.728;8.748;2023-03-04T11:03:18;101035.53;;;3.49;100.00
34925;BME280;21130;51.728;8.748;2023-03-04T11:05:45;101032.41;;;3.52;100.00
34925;BME280;21130;51.728;8.748;2023-03-04T11:08:16;101038.75;;;3.53;100.00
34925;BME280;21130;51.728;8.748;2023-03-04T11:10:45;101027.59;;;3.54;100.00
34925;BME280;21130;51.728;8.748;2023-03-04T11:13:17;101030.34;;;3.54;100.00
34925;BME280;21130;51.728;8.748;2023-03-04T11:15:49;101023.72;;;3.63;100.00
34925;BME280;21130;51.728;8.748;2023-03-04T11:18:19;101020.16;;;3.78;100.00
34925;BME280;21130;51.728;8.748;2023-03-04T11:20:48;101022.81;;;4.01;100.00
34925;BME280;21130;51.728;8.748;2023-03-04T11:23:17;101020.56;;;4.19;100.00
34925;BME280;21130;51.728;8.748;2023-03-04T11:25:49;101021.41;;;4.20;100.00
34925;BME280;21130;51.728;8.748;2023-03-04T11:28:21;101017.78;;;4.34;100.00
34925;BME280;21130;51.728;8.748;2023-03-04T11:30:50;101010.97;;;4.30;100.00
34925;BME280;21130;51.728;8.748;2023-03-04T11:33:25;101008.22;;;4.30;100.00
34925;BME280;21130;51.728;8.748;2023-03-04T11:35:58;101013.88;;;4.28;100.00
34925;BME280;21130;51.728;8.748;2023-03-04T11:38:31;101007.44;;;4.21;100.00
34925;BME280;21130;51.728;8.748;2023-03-04T11:41:03;101005.94;;;4.19;100.00
34925;BME280;21130;51.728;8.748;2023-03-04T11:43:33;101005.66;;;4.28;100.00
34925;BME280;21130;51.728;8.748;2023-03-04T11:46:14;101008.03;;;4.31;100.00
34925;BME280;21130;51.728;8.748;2023-03-04T11:48:50;100999.59;;;4.33;100.00
34925;BME280;21130;51.728;8.748;2023-03-04T11:51:22;101004.06;;;4.34;100.00
34925;BME280;21130;51.728;8.748;2023-03-04T11:56:46;100986.06;;;4.31;100.00
34925;BME280;21130;51.728;8.748;2023-03-04T12:02:16;100979.31;;;4.34;100.00
34925;BME280;21130;51.728;8.748;2023-03-04T12:05:03;100979.47;;;4.47;100.00
34925;BME280;21130;51.728;8.748;2023-03-04T12:07:43;100981.16;;;4.85;100.00
34925;BME280;21130;51.728;8.748;2023-03-04T12:10:20;100970.47;;;5.18;100.00
34925;BME280;21130;51.728;8.748;2023-03-04T12:13:00;100957.97;;;5.44;100.00
34925;BME280;21130;51.728;8.748;2023-03-04T12:15:41;100952.88;;;5.40;100.00
34925;BME280;21130;51.728;8.748;2023-03-04T12:18:20;100953.22;;;5.31;100.00
34925;BME280;21130;51.728;8.748;2023-03-04T12:21:15;100952.31;;;5.24;100.00
34925;BME280;21130;51.728;8.748;2023-03-04T12:24:18;100949.63;;;5.09;100.00
34925;BME280;21130;51.728;8.748;2023-03-04T12:26:54;100952.81;;;4.84;100.00
34925;BME280;21130;51.728;8.748;2023-03-04T12:29:28;100948.47;;;4.75;100.00
34925;BME280;21130;51.728;8.748;2023-03-04T12:32:03;100942.59;;;4.78;100.00
34925;BME280;21130;51.728;8.748;2023-03-04T12:34:57;100936.81;;;4.73;100.00
34925;BME280;21130;51.728;8.748;2023-03-04T12:37:37;100932.75;;;4.69;100.00
34925;BME280;21130;51.728;8.748;2023-03-04T12:40:32;100937.13;;;4.63;100.00
34925;BME280;21130;51.728;8.748;2023-03-04T12:43:08;100938.38;;;4.61;100.00
34925;BME280;21130;51.728;8.748;2023-03-04T12:45:46;100932.38;;;4.72;100.00
34925;BME280;21130;51.728;8.748;2023-03-04T12:48:22;100925.41;;;4.76;100.00
34925;BME280;21130;51.728;8.748;2023-03-04T12:51:01;100926.19;;;4.91;100.00
34925;BME280;21130;51.728;8.748;2023-03-04T12:53:36;100921.09;;;5.10;100.00
34925;BME280;21130;51.728;8.748;2023-03-04T12:56:05;100919.03;;;5.18;100.00
34925;BME280;21130;51.728;8.748;2023-03-04T12:58:34;100914.25;;;5.27;100.00
34925;BME280;21130;51.728;8.748;2023-03-04T13:01:07;100910.44;;;5.28;100.00
34925;BME280;21130;51.728;8.748;2023-03-04T13:03:40;100910.34;;;5.15;100.00
34925;BME280;21130;51.728;8.748;2023-03-04T13:06:18;100896.59;;;5.15;100.00